Time;durP1;ratioP1;P1;durP2;ratioP2;P2;SDS_P1;SDS_P2;PMS_P1;PMS_P2;Temp;Humidity;BMP_temperature;BMP_pressure;BME280_temperature;BME280_humidity;BME280_pressure;Samples;Min_cycle;Max_cycle;Signal;HPM_P1;HPM_P2
2023/08/31 00:01:09;;;;;;;6.55;3.60;;;;;;;13.20;100.00;100375.47;5022134;28;20034;-60
2023/08/31 00:03:35;;;;;;;7.03;3.70;;;;;;;13.16;100.00;100381.63;5018233;28;20026;-61
2023/08/31 00:06:07;;;;;;;7.10;4.30;;;;;;;13.14;100.00;100377.38;5016107;28;20037;-61
2023/08/31 00:08:34;;;;;;;6.90;2.88;;;;;;;13.14;100.00;100374.78;5031143;28;20041;-61
2023/08/31 00:11:00;;;;;;;6.60;3.55;;;;;;;13.16;100.00;100368.66;5007958;28;20038;-60
2023/08/31 00:13:27;;;;;;;7.13;3.10;;;;;;;13.19;100.00;100371.16;5014284;28;20133;-61
2023/08/31 00:15:59;;;;;;;4.60;3.00;;;;;;;13.22;100.00;100378.88;5020236;28;20049;-60
2023/08/31 00:18:25;;;;;;;8.45;4.15;;;;;;;13.26;100.00;100369.28;5018815;28;20046;-61
2023/08/31 00:20:51;;;;;;;6.57;3.03;;;;;;;13.30;100.00;100368.28;5030031;28;20021;-60
2023/08/31 00:23:16;;;;;;;7.13;3.45;;;;;;;13.33;100.00;100363.88;5010017;28;20528;-61
2023/08/31 00:25:43;;;;;;;6.43;3.33;;;;;;;13.38;100.00;100367.22;5014283;28;20076;-62
2023/08/31 00:28:09;;;;;;;9.82;3.40;;;;;;;13.39;100.00;100368.91;5018327;28;20044;-60
2023/08/31 00:30:34;;;;;;;6.70;3.40;;;;;;;13.41;100.00;100371.47;5027503;28;20025;-60
2023/08/31 00:33:00;;;;;;;4.82;2.70;;;;;;;13.43;100.00;100367.09;5018287;28;20806;-60
2023/08/31 00:35:29;;;;;;;4.70;2.92;;;;;;;13.44;100.00;100371.41;5020174;28;20051;-60
2023/08/31 00:37:58;;;;;;;6.88;3.60;;;;;;;13.44;100.00;100367.03;5029670;28;20049;-60
2023/08/31 00:40:25;;;;;;;5.50;3.15;;;;;;;13.48;100.00;100367.81;5013817;28;20083;-60
2023/08/31 00:42:51;;;;;;;5.47;3.05;;;;;;;13.48;100.00;100368.66;5025765;28;20088;-60
2023/08/31 00:45:17;;;;;;;6.95;3.25;;;;;;;13.47;100.00;100369.56;5032157;28;20037;-60
2023/08/31 00:47:43;;;;;;;10.75;3.55;;;;;;;13.47;100.00;100368.72;5025055;28;20037;-60
2023/08/31 00:50:09;;;;;;;5.60;3.15;;;;;;;13.48;100.00;100373.00;5025067;28;20030;-60
2023/08/31 00:52:34;;;;;;;5.20;2.70;;;;;;;13.48;100.00;100370.41;5014180;28;20065;-60
2023/08/31 00:55:02;;;;;;;5.40;3.20;;;;;;;13.45;100.00;100360.97;5013093;28;20038;-61
2023/08/31 00:57:28;;;;;;;4.85;3.67;;;;;;;13.44;100.00;100361.03;5017960;28;20554;-61
2023/08/31 00:59:55;;;;;;;6.85;3.05;;;;;;;13.46;100.00;100364.41;5018364;28;20029;-61
2023/08/31 01:02:27;;;;;;;11.55;3.70;;;;;;;13.44;100.00;100359.25;5014893;28;20091;-61
2023/08/31 01:04:56;;;;;;;5.78;3.00;;;;;;;13.45;100.00;100360.97;5019514;28;20041;-61
2023/08/31 01:08:00;;;;;;;3.75;2.53;;;;;;;13.42;100.00;100366.22;5021185;28;20047;-61
2023/08/31 01:10:40;;;;;;;4.90;3.03;;;;;;;13.40;100.00;100364.56;4974368;28;20035;-60
2023/08/31 01:13:13;;;;;;;3.70;2.60;;;;;;;13.40;100.00;100364.56;5014302;28;20068;-60
2023/08/31 01:15:44;;;;;;;10.95;3.58;;;;;;;13.39;100.00;100357.66;5010216;28;20698;-61
2023/08/31 01:18:11;;;;;;;5.65;3.20;;;;;;;13.35;100.00;100364.72;5020865;28;20029;-61
2023/08/31 01:21:01;;;;;;;6.95;3.10;;;;;;;13.38;100.00;100361.19;5007653;28;20128;-61
2023/08/31 01:23:33;;;;;;;5.28;2.70;;;;;;;13.36;100.00;100366.41;5011968;28;20053;-60
2023/08/31 01:25:59;;;;;;;13.38;3.83;;;;;;;13.32;100.00;100369.13;5013598;28;20042;-60
2023/08/31 01:28:25;;;;;;;7.60;3.08;;;;;;;13.33;100.00;100373.41;5009339;28;20069;-60
2023/08/31 01:30:50;;;;;;;6.38;3.33;;;;;;;13.32;100.00;100366.53;5014194;28;20038;-60
2023/08/31 01:33:15;;;;;;;8.43;2.97;;;;;;;13.30;100.00;100374.34;5019120;28;20499;-61
2023/08/31 01:35:46;;;;;;;5.20;2.67;;;;;;;13.29;100.00;100377.84;5013938;28;20075;-61
2023/08/31 01:38:18;;;;;;;6.15;2.80;;;;;;;13.28;100.00;100377.88;5010020;28;20199;-61
2023/08/31 01:40:52;;;;;;;5.47;2.70;;;;;;;13.29;100.00;100382.19;5008774;28;20041;-60
2023/08/31 01:43:19;;;;;;;6.65;3.67;;;;;;;13.25;100.00;100389.19;5013114;28;20048;-61
2023/08/31 01:45:46;;;;;;;10.95;4.28;;;;;;;13.25;100.00;100388.31;5002879;28;20132;-60
2023/08/31 01:48:14;;;;;;;6.60;3.03;;;;;;;13.23;100.00;100392.72;5009955;28;20101;-60
2023/08/31 01:50:39;;;;;;;5.70;3.15;;;;;;;13.19;100.00;100397.13;5013169;28;20048;-60
2023/08/31 01:53:06;;;;;;;5.28;2.60;;;;;;;13.14;100.00;100404.19;5012025;28;20073;-60
2023/08/31 01:55:32;;;;;;;8.13;3.40;;;;;;;13.10;100.00;100399.94;5010237;28;20041;-60
2023/08/31 01:57:58;;;;;;;4.88;3.13;;;;;;;13.03;100.00;100393.19;5007426;28;20823;-60
2023/08/31 02:00:23;;;;;;;5.85;3.03;;;;;;;12.96;100.00;100395.06;5008711;28;20029;-61
2023/08/31 02:02:49;;;;;;;4.05;2.80;;;;;;;12.89;100.00;100397.81;5009940;28;20033;-60
2023/08/31 02:05:14;;;;;;;5.25;2.92;;;;;;;12.82;100.00;100393.69;5013779;28;20045;-60
2023/08/31 02:07:40;;;;;;;6.22;3.20;;;;;;;12.72;100.00;100397.38;5020150;28;20037;-60
2023/08/31 02:10:06;;;;;;;10.38;3.67;;;;;;;12.66;100.00;100394.91;5006081;28;20084;-61
2023/08/31 02:12:32;;;;;;;6.75;3.55;;;;;;;12.61;100.00;100395.03;5014467;28;20030;-61
2023/08/31 02:14:58;;;;;;;7.18;3.40;;;;;;;12.56;100.00;100394.25;5018352;28;20040;-60
2023/08/31 02:17:23;;;;;;;6.35;3.25;;;;;;;12.51;100.00;100397.84;5014815;28;20041;-61
2023/08/31 02:19:49;;;;;;;4.60;3.15;;;;;;;12.45;100.00;100398.84;5010988;28;20042;-60
2023/08/31 02:22:14;;;;;;;5.82;3.47;;;;;;;12.41;100.00;100404.97;5015646;28;20037;-61
2023/08/31 02:24:39;;;;;;;4.55;3.00;;;;;;;12.35;100.00;100413.72;5005155;28;20034;-60
2023/08/31 02:27:05;;;;;;;6.15;3.80;;;;;;;12.32;100.00;100407.75;5011692;28;20044;-60
2023/08/31 02:29:30;;;;;;;7.40;4.00;;;;;;;12.29;100.00;100411.25;5007231;28;20825;-60
2023/08/31 02:31:55;;;;;;;7.30;3.72;;;;;;;12.24;100.00;100414.84;5020804;28;20060;-60
2023/08/31 02:34:21;;;;;;;7.30;3.25;;;;;;;12.19;100.00;100407.19;5015770;28;20037;-60
2023/08/31 02:36:46;;;;;;;4.65;3.53;;;;;;;12.16;100.00;100409.84;5014411;28;20705;-60
2023/08/31 02:39:12;;;;;;;5.57;3.25;;;;;;;12.13;100.00;100411.63;5006660;28;20410;-60
2023/08/31 02:41:38;;;;;;;7.13;4.22;;;;;;;12.09;100.00;100404.78;5016184;28;20065;-60
2023/08/31 02:44:03;;;;;;;9.63;4.85;;;;;;;12.07;100.00;100409.16;5015524;28;20605;-60
2023/08/31 02:46:29;;;;;;;9.23;4.75;;;;;;;12.02;100.00;100405.81;5010384;28;20041;-61
2023/08/31 02:48:54;;;;;;;7.75;4.13;;;;;;;12.01;100.00;100417.06;5012777;28;20108;-60
2023/08/31 02:51:19;;;;;;;6.72;3.78;;;;;;;11.96;100.00;100413.72;5010092;28;20040;-60
2023/08/31 02:53:45;;;;;;;8.18;3.53;;;;;;;11.94;100.00;100424.09;5013078;28;20122;-60
2023/08/31 02:56:10;;;;;;;4.93;3.53;;;;;;;11.91;100.00;100418.97;5010324;28;20037;-60
2023/08/31 02:58:36;;;;;;;6.05;3.63;;;;;;;11.90;100.00;100414.66;5007545;28;20041;-60
2023/08/31 03:01:11;;;;;;;10.23;4.28;;;;;;;11.89;100.00;100416.41;5011007;28;20044;-61
2023/08/31 03:03:36;;;;;;;7.30;4.18;;;;;;;11.88;100.00;100421.59;5008270;28;20493;-60
2023/08/31 03:06:02;;;;;;;5.82;3.55;;;;;;;11.88;100.00;100419.03;5016861;28;20034;-61
2023/08/31 03:08:27;;;;;;;7.53;3.65;;;;;;;11.85;100.00;100422.53;5013539;28;20098;-61
2023/08/31 03:10:53;;;;;;;4.72;3.65;;;;;;;11.84;100.00;100420.81;5003209;28;20041;-61
2023/08/31 03:13:18;;;;;;;8.02;3.88;;;;;;;11.82;100.00;100403.59;5005909;28;20061;-60
2023/08/31 03:15:43;;;;;;;6.40;3.38;;;;;;;11.81;100.00;100414.84;5003548;28;20041;-60
2023/08/31 03:18:09;;;;;;;4.38;3.38;;;;;;;11.79;100.00;100416.59;5010523;28;20030;-60
2023/08/31 03:20:34;;;;;;;7.72;4.05;;;;;;;11.77;100.00;100415.78;5010312;28;20041;-60
2023/08/31 03:22:59;;;;;;;4.60;3.42;;;;;;;11.74;100.00;100418.44;5005029;28;20088;-60
2023/08/31 03:25:27;;;;;;;4.80;3.78;;;;;;;11.73;100.00;100419.31;5015462;28;20041;-61
2023/08/31 03:27:53;;;;;;;7.03;4.72;;;;;;;11.76;100.00;100422.69;5005742;28;20044;-61
2023/08/31 03:30:18;;;;;;;5.75;4.70;;;;;;;11.82;100.00;100422.59;5006944;28;20036;-61
2023/08/31 03:32:43;;;;;;;4.50;3.92;;;;;;;11.92;100.00;100427.59;5008276;28;20048;-60
2023/08/31 03:35:09;;;;;;;6.95;4.63;;;;;;;12.03;100.00;100420.44;5014975;28;20118;-61
2023/08/31 03:37:35;;;;;;;6.93;4.53;;;;;;;12.13;100.00;100419.41;5006231;28;20037;-60
2023/08/31 03:40:00;;;;;;;6.07;4.53;;;;;;;12.22;100.00;100420.06;5003362;28;20152;-60
2023/08/31 03:42:25;;;;;;;8.57;4.90;;;;;;;12.30;100.00;100423.34;5007497;28;20133;-61
2023/08/31 03:44:51;;;;;;;7.05;4.97;;;;;;;12.36;100.00;100420.63;5010882;28;20841;-60
2023/08/31 03:47:16;;;;;;;8.48;4.65;;;;;;;12.45;100.00;100420.44;5008903;28;21517;-61
2023/08/31 03:49:41;;;;;;;7.22;4.38;;;;;;;12.53;100.00;100422.00;5007416;28;20034;-60
2023/08/31 03:52:07;;;;;;;9.10;4.20;;;;;;;12.58;100.00;100421.03;5014412;28;20052;-61
2023/08/31 03:54:32;;;;;;;8.25;4.47;;;;;;;12.65;100.00;100422.59;5021156;28;20021;-61
2023/08/31 03:56:57;;;;;;;6.60;4.53;;;;;;;12.67;100.00;100417.38;5012458;28;20041;-60
2023/08/31 03:59:26;;;;;;;5.72;3.88;;;;;;;12.71;100.00;100422.44;5004567;28;21048;-60
2023/08/31 04:01:51;;;;;;;6.57;4.30;;;;;;;12.78;100.00;100420.56;5012637;28;20038;-60
2023/08/31 04:04:17;;;;;;;6.93;4.07;;;;;;;12.80;100.00;100429.16;5009141;28;20056;-60
2023/08/31 04:06:42;;;;;;;8.15;4.70;;;;;;;12.80;100.00;100424.84;5009903;28;22520;-60
2023/08/31 04:09:08;;;;;;;6.85;4.45;;;;;;;12.80;100.00;100431.75;5006323;28;20887;-60
2023/08/31 04:11:33;;;;;;;6.90;4.70;;;;;;;12.78;100.00;100424.03;5004516;28;20475;-60
2023/08/31 04:13:58;;;;;;;8.23;4.65;;;;;;;12.77;100.00;100427.50;5003240;28;20054;-60
2023/08/31 04:16:24;;;;;;;5.53;4.28;;;;;;;12.73;100.00;100435.41;5009570;28;20588;-60
2023/08/31 04:18:51;;;;;;;4.68;3.47;;;;;;;12.72;100.00;100425.91;5013862;28;20651;-60
2023/08/31 04:21:18;;;;;;;6.82;4.20;;;;;;;12.72;100.00;100428.50;5012396;28;20036;-61
2023/08/31 04:23:43;;;;;;;4.85;3.85;;;;;;;12.68;100.00;100435.47;5015908;28;20105;-60
2023/08/31 04:26:11;;;;;;;7.38;4.65;;;;;;;12.65;100.00;100439.88;5011577;28;20050;-60
2023/08/31 04:28:37;;;;;;;6.68;3.63;;;;;;;12.65;100.00;100438.13;5005309;28;20045;-60
2023/08/31 04:31:04;;;;;;;9.32;4.28;;;;;;;12.64;100.00;100433.88;5010549;28;20295;-60
2023/08/31 04:33:30;;;;;;;10.98;4.75;;;;;;;12.62;100.00;100437.34;5007593;28;20033;-60
2023/08/31 04:35:55;;;;;;;4.63;3.60;;;;;;;12.62;100.00;100437.34;5011698;28;20034;-60
2023/08/31 04:38:20;;;;;;;6.43;4.10;;;;;;;12.58;100.00;100446.97;5010708;28;20037;-61
2023/08/31 04:40:46;;;;;;;8.38;4.78;;;;;;;12.53;100.00;100453.97;5009200;28;20139;-60
2023/08/31 04:43:11;;;;;;;6.50;3.90;;;;;;;12.45;100.00;100456.72;5013081;28;20368;-60
2023/08/31 04:45:37;;;;;;;5.55;4.07;;;;;;;12.36;100.00;100458.66;5004396;28;20037;-60
2023/08/31 04:48:03;;;;;;;6.45;3.95;;;;;;;12.28;100.00;100458.81;5016799;28;20148;-61
2023/08/31 04:50:28;;;;;;;6.82;4.03;;;;;;;12.22;100.00;100456.34;5005557;28;20048;-60
2023/08/31 04:52:54;;;;;;;6.63;4.05;;;;;;;12.16;100.00;100461.66;5012560;28;20042;-60
2023/08/31 04:55:22;;;;;;;7.38;4.40;;;;;;;12.12;100.00;100459.13;5009871;28;20033;-60
2023/08/31 04:57:47;;;;;;;9.90;4.80;;;;;;;12.06;100.00;100464.44;5016417;28;20541;-60
2023/08/31 05:00:13;;;;;;;8.18;4.78;;;;;;;12.00;100.00;100461.97;5013101;28;20033;-61
2023/08/31 05:02:39;;;;;;;10.75;4.40;;;;;;;11.97;100.00;100460.28;5009212;28;20096;-60
2023/08/31 05:05:05;;;;;;;10.65;4.82;;;;;;;11.97;100.00;100464.59;5013406;28;20042;-61
2023/08/31 05:07:30;;;;;;;6.53;4.55;;;;;;;11.96;100.00;100468.09;5006511;28;20065;-61
2023/08/31 05:09:56;;;;;;;4.78;4.03;;;;;;;11.95;100.00;100480.19;5009256;28;20870;-61
2023/08/31 05:12:22;;;;;;;5.05;4.10;;;;;;;11.93;100.00;100484.53;5009697;28;20029;-61
2023/08/31 05:14:47;;;;;;;6.90;4.78;;;;;;;11.93;100.00;100491.47;5008891;28;20053;-61
2023/08/31 05:17:12;;;;;;;6.78;4.30;;;;;;;11.93;100.00;100494.88;5008616;28;20037;-61
2023/08/31 05:19:38;;;;;;;7.43;3.85;;;;;;;11.94;100.00;100500.91;5008532;28;20117;-61
2023/08/31 05:22:04;;;;;;;9.68;4.60;;;;;;;11.96;100.00;100504.38;5008662;28;20030;-61
2023/08/31 05:24:29;;;;;;;9.65;4.60;;;;;;;11.97;100.00;100506.06;5012396;28;20859;-62
2023/08/31 05:26:55;;;;;;;5.40;4.30;;;;;;;11.99;100.00;100512.06;5012177;28;20034;-61
2023/08/31 05:29:20;;;;;;;8.70;4.72;;;;;;;11.99;100.00;100512.91;5017932;28;20502;-61
2023/08/31 05:31:45;;;;;;;6.63;4.28;;;;;;;12.00;100.00;100509.44;5016574;28;20443;-61
2023/08/31 05:34:11;;;;;;;7.55;4.15;;;;;;;12.02;100.00;100510.25;5015481;28;20060;-61
2023/08/31 05:36:57;;;;;;;8.50;4.40;;;;;;;12.08;100.00;100504.97;5011934;28;20037;-62
2023/08/31 05:39:22;;;;;;;7.55;4.32;;;;;;;12.14;100.00;100511.81;5010948;28;20446;-61
2023/08/31 05:41:48;;;;;;;5.88;4.07;;;;;;;12.17;100.00;100517.75;5004555;28;20066;-61
2023/08/31 05:44:14;;;;;;;6.38;4.15;;;;;;;12.22;100.00;100510.78;5010400;28;20514;-61
2023/08/31 05:46:40;;;;;;;9.18;4.10;;;;;;;12.26;100.00;100514.13;5007429;28;20048;-61
2023/08/31 05:49:06;;;;;;;7.15;3.90;;;;;;;12.33;100.00;100513.13;5012467;28;20041;-61
2023/08/31 05:51:32;;;;;;;7.63;4.45;;;;;;;12.37;100.00;100520.84;5005444;28;20709;-61
2023/08/31 05:53:57;;;;;;;8.07;3.83;;;;;;;12.45;100.00;100526.72;5014530;28;20037;-61
2023/08/31 05:56:22;;;;;;;5.78;3.78;;;;;;;12.50;100.00;100521.44;5005576;28;20537;-61
2023/08/31 05:58:50;;;;;;;8.57;3.75;;;;;;;12.54;100.00;100517.91;5007907;28;20065;-61
2023/08/31 06:01:15;;;;;;;5.13;3.58;;;;;;;12.61;100.00;100519.50;5009615;28;20040;-61
2023/08/31 06:03:41;;;;;;;6.65;3.90;;;;;;;12.67;100.00;100523.69;5008587;28;20029;-61
2023/08/31 06:06:06;;;;;;;6.03;3.92;;;;;;;12.72;100.00;100527.03;5012027;28;20061;-62
2023/08/31 06:08:32;;;;;;;6.15;3.58;;;;;;;12.76;100.00;100533.88;5007991;28;20450;-61
2023/08/31 06:10:57;;;;;;;10.43;3.90;;;;;;;12.80;100.00;100530.31;5009971;28;20033;-61
2023/08/31 06:13:23;;;;;;;5.55;3.47;;;;;;;12.87;100.00;100526.72;5008136;28;20048;-61
2023/08/31 06:15:48;;;;;;;8.63;4.35;;;;;;;12.91;100.00;100528.38;5009319;28;20057;-61
2023/08/31 06:18:13;;;;;;;6.57;3.67;;;;;;;12.94;100.00;100541.25;5015600;28;20367;-62
2023/08/31 06:20:39;;;;;;;6.90;3.70;;;;;;;12.98;100.00;100533.38;5004298;28;20037;-62
2023/08/31 06:23:04;;;;;;;6.50;3.42;;;;;;;13.05;100.00;100541.06;5008693;28;20836;-62
2023/08/31 06:25:30;;;;;;;4.43;2.85;;;;;;;13.09;100.00;100537.53;5007908;28;20044;-64
2023/08/31 06:27:55;;;;;;;7.65;3.05;;;;;;;13.13;100.00;100536.53;5011479;28;20751;-65
2023/08/31 06:30:21;;;;;;;4.90;2.92;;;;;;;13.22;100.00;100538.94;5004958;28;20033;-65
2023/08/31 06:32:47;;;;;;;7.65;2.88;;;;;;;13.26;100.00;100545.78;5010899;28;20485;-65
2023/08/31 06:35:13;;;;;;;4.53;2.53;;;;;;;13.30;100.00;100543.06;5009952;28;20126;-65
2023/08/31 06:37:40;;;;;;;5.22;3.50;;;;;;;13.37;100.00;100547.22;5011940;28;20041;-65
2023/08/31 06:40:08;;;;;;;6.10;2.70;;;;;;;13.45;100.00;100549.63;5011867;28;20031;-64
2023/08/31 06:42:34;;;;;;;5.47;3.20;;;;;;;13.51;100.00;100547.75;5007998;28;20775;-64
2023/08/31 06:44:59;;;;;;;8.85;3.15;;;;;;;13.56;100.00;100553.69;5003774;28;20068;-65
2023/08/31 06:47:24;;;;;;;6.63;2.88;;;;;;;13.64;99.97;100547.47;5002756;28;20095;-65
2023/08/31 06:49:50;;;;;;;3.80;2.60;;;;;;;13.72;100.00;100553.31;5015987;28;20041;-65
2023/08/31 06:52:16;;;;;;;5.78;2.83;;;;;;;13.76;100.00;100553.22;5007397;28;20537;-65
2023/08/31 06:54:41;;;;;;;3.53;2.58;;;;;;;13.81;100.00;100553.94;5017379;28;20029;-65
2023/08/31 06:57:07;;;;;;;6.03;2.63;;;;;;;13.91;99.82;100552.84;5003780;28;20037;-65
2023/08/31 06:59:33;;;;;;;7.30;2.88;;;;;;;14.03;98.78;100554.28;5013492;28;20139;-65
2023/08/31 07:01:58;;;;;;;7.13;2.38;;;;;;;14.17;97.92;100554.75;5000270;28;20498;-65
2023/08/31 07:04:24;;;;;;;4.55;2.10;;;;;;;14.29;95.15;100548.38;5011586;28;20037;-65
2023/08/31 07:06:49;;;;;;;2.85;1.90;;;;;;;14.38;96.04;100562.03;5003367;28;20498;-64
2023/08/31 07:09:17;;;;;;;7.10;2.58;;;;;;;14.44;96.36;100558.41;5018243;28;20453;-65
2023/08/31 07:11:43;;;;;;;4.57;2.08;;;;;;;14.55;95.55;100552.00;5005780;28;20038;-63
2023/08/31 07:14:08;;;;;;;3.75;1.60;;;;;;;14.68;93.77;100554.25;5009973;28;20041;-65
2023/08/31 07:16:33;;;;;;;4.63;1.90;;;;;;;14.82;93.52;100557.31;5034703;28;20499;-65
2023/08/31 07:18:59;;;;;;;3.25;1.70;;;;;;;14.95;91.45;100550.88;5008932;28;20053;-65
2023/08/31 07:21:24;;;;;;;5.22;1.90;;;;;;;15.03;91.46;100559.28;5013853;28;20029;-64
2023/08/31 07:23:49;;;;;;;5.00;2.20;;;;;;;15.06;90.57;100554.84;5010901;28;20032;-65
2023/08/31 07:26:15;;;;;;;5.28;1.92;;;;;;;15.18;88.99;100548.41;5004562;28;20038;-65
2023/08/31 07:28:41;;;;;;;4.30;2.00;;;;;;;15.19;88.85;100545.78;5009267;28;20511;-65
2023/08/31 07:31:07;;;;;;;5.72;1.98;;;;;;;15.26;88.83;100558.59;5012035;28;20091;-66
2023/08/31 07:33:37;;;;;;;8.05;2.63;;;;;;;15.26;88.31;100556.84;5015783;28;20084;-65
2023/08/31 07:36:04;;;;;;;3.42;1.83;;;;;;;15.34;87.88;100559.22;5018912;28;20072;-65
2023/08/31 07:38:30;;;;;;;5.45;1.70;;;;;;;15.44;87.28;100555.41;5022774;28;20029;-66
2023/08/31 07:40:56;;;;;;;4.93;1.80;;;;;;;15.51;88.60;100565.59;5017080;28;20397;-65
2023/08/31 07:43:21;;;;;;;4.03;1.70;;;;;;;15.55;88.88;100564.59;5008583;28;20033;-65
2023/08/31 07:45:47;;;;;;;7.22;2.20;;;;;;;15.67;88.31;100564.22;5013333;28;20036;-65
2023/08/31 07:48:13;;;;;;;5.15;1.52;;;;;;;15.80;86.75;100561.22;5008336;28;20025;-65
2023/08/31 07:50:41;;;;;;;3.80;1.83;;;;;;;15.94;86.60;100565.06;5021414;28;20056;-66
2023/08/31 07:53:07;;;;;;;4.18;1.75;;;;;;;16.04;86.24;100563.03;5012906;28;20030;-66
2023/08/31 07:55:32;;;;;;;2.47;1.20;;;;;;;16.06;82.22;100533.38;5024202;28;20043;-65
2023/08/31 07:57:58;;;;;;;2.95;1.33;;;;;;;16.24;82.97;100560.56;5018772;28;20038;-63
2023/08/31 08:00:23;;;;;;;5.25;1.30;;;;;;;16.39;82.68;100561.78;5015523;28;20119;-62
2023/08/31 08:02:49;;;;;;;7.72;1.83;;;;;;;16.49;80.90;100551.00;5023237;28;20063;-66
2023/08/31 08:05:14;;;;;;;3.25;1.50;;;;;;;16.62;80.11;100541.78;5009384;28;20060;-65
2023/08/31 08:07:43;;;;;;;4.65;1.35;;;;;;;16.83;79.40;100553.22;5013333;28;20231;-64
2023/08/31 08:10:09;;;;;;;4.05;1.67;;;;;;;17.11;79.16;100553.06;5015032;28;20038;-59
2023/08/31 08:12:39;;;;;;;4.65;1.52;;;;;;;17.31;78.55;100551.38;5018172;28;20021;-59
2023/08/31 08:15:07;;;;;;;4.93;1.30;;;;;;;17.48;76.26;100532.44;5015957;28;20112;-59
2023/08/31 08:17:33;;;;;;;3.20;1.20;;;;;;;17.71;74.76;100524.50;5010085;28;20040;-59
2023/08/31 08:19:58;;;;;;;2.70;1.13;;;;;;;18.02;74.92;100531.91;5016626;28;20030;-59
2023/08/31 08:22:25;;;;;;;3.00;1.10;;;;;;;18.07;71.06;100480.28;5008850;28;20061;-59
2023/08/31 08:24:53;;;;;;;3.70;1.58;;;;;;;18.13;72.66;100521.88;5011608;28;20470;-64
2023/08/31 08:27:20;;;;;;;2.92;1.30;;;;;;;18.09;71.91;100514.19;5014196;28;20039;-65
2023/08/31 08:29:45;;;;;;;3.13;1.20;;;;;;;18.08;70.67;100504.69;5013803;28;20030;-65
2023/08/31 08:32:11;;;;;;;2.63;1.35;;;;;;;18.11;71.95;100525.44;5017781;28;20063;-65
2023/08/31 08:34:36;;;;;;;2.25;1.10;;;;;;;17.96;70.09;100504.25;5031516;28;20046;-65
2023/08/31 08:37:03;;;;;;;1.98;1.23;;;;;;;17.80;70.97;100523.25;5035694;28;20494;-65
2023/08/31 08:39:29;;;;;;;3.38;0.95;;;;;;;17.70;69.45;100491.41;5017744;28;20034;-65
2023/08/31 08:41:59;;;;;;;2.28;1.00;;;;;;;17.69;69.44;100502.78;5026744;28;20037;-65
2023/08/31 08:44:25;;;;;;;3.30;1.27;;;;;;;17.66;71.09;100529.03;5020312;28;20048;-65
2023/08/31 08:46:52;;;;;;;4.82;1.40;;;;;;;17.71;70.46;100521.88;5008587;28;20192;-65
2023/08/31 08:49:19;;;;;;;3.45;1.40;;;;;;;17.74;71.20;100529.59;5014734;28;20038;-66
2023/08/31 08:51:46;;;;;;;4.50;1.63;;;;;;;17.82;68.99;100495.28;5013318;28;20674;-65
2023/08/31 08:54:13;;;;;;;2.63;1.15;;;;;;;17.80;70.11;100521.50;5021873;28;20030;-66
2023/08/31 08:56:38;;;;;;;1.70;1.00;;;;;;;17.81;67.88;100488.38;5021703;28;20059;-65
2023/08/31 08:59:04;;;;;;;4.75;1.20;;;;;;;17.81;69.09;100519.75;5016504;28;20045;-65
2023/08/31 09:01:31;;;;;;;3.03;1.20;;;;;;;17.85;69.12;100527.41;5011563;28;20099;-65
2023/08/31 09:03:56;;;;;;;4.35;1.45;;;;;;;17.96;68.47;100519.09;5010257;28;20269;-65
2023/08/31 09:06:23;;;;;;;2.30;1.15;;;;;;;18.07;68.12;100521.28;5019806;28;20482;-65
2023/08/31 09:09:00;;;;;;;3.03;1.20;;;;;;;18.18;66.88;100501.59;5018331;28;20449;-65
2023/08/31 09:11:26;;;;;;;3.95;1.25;;;;;;;18.38;67.08;100512.00;5016362;28;20095;-65
2023/08/31 09:13:52;;;;;;;2.20;1.13;;;;;;;18.50;66.73;100510.63;5007972;28;20042;-64
2023/08/31 09:16:31;;;;;;;3.40;1.05;;;;;;;18.59;66.36;100504.97;5021874;28;20042;-65
2023/08/31 09:18:56;;;;;;;3.45;1.52;;;;;;;18.62;66.19;100510.06;5013291;28;20041;-65
2023/08/31 09:21:24;;;;;;;2.15;1.13;;;;;;;18.70;64.70;100467.84;5014871;28;20486;-65
2023/08/31 09:23:59;;;;;;;2.92;0.95;;;;;;;18.69;66.16;100505.41;5018258;28;20042;-65
2023/08/31 09:26:24;;;;;;;;;;;;;;;18.67;66.07;100509.88;5023999;28;20085;-66
2023/08/31 09:28:50;;;;;;;3.67;1.00;;;;;;;18.71;65.49;100506.16;5026783;28;20437;-65
2023/08/31 09:31:15;;;;;;;3.78;1.15;;;;;;;18.71;65.39;100509.66;5018604;28;20076;-65
2023/08/31 09:33:50;;;;;;;3.47;1.30;;;;;;;18.73;64.44;100486.84;5012668;28;20083;-64
2023/08/31 09:36:15;;;;;;;;;;;;;;;18.78;61.24;100436.91;5013000;28;20091;-60
2023/08/31 09:38:45;;;;;;;3.10;1.20;;;;;;;18.83;61.15;100448.00;5003459;28;19926;-60
2023/08/31 09:41:11;;;;;;;1.70;1.00;;;;;;;18.92;62.46;100479.88;5008982;28;20103;-60
2023/08/31 09:43:36;;;;;;;2.05;1.30;;;;;;;18.94;62.98;100478.03;5009901;28;20045;-60
2023/08/31 09:46:03;;;;;;;3.03;1.10;;;;;;;19.18;62.59;100475.16;5010710;28;20065;-60
2023/08/31 09:48:30;;;;;;;3.50;1.10;;;;;;;19.10;64.11;100499.13;5006266;28;20071;-60
2023/08/31 09:50:56;;;;;;;4.32;1.38;;;;;;;19.07;64.00;100502.75;5006180;28;20042;-60
2023/08/31 09:53:24;;;;;;;3.13;0.95;;;;;;;18.99;64.04;100504.88;5006554;28;20033;-60
2023/08/31 09:55:51;;;;;;;2.97;1.15;;;;;;;18.87;64.40;100505.44;5007821;28;20049;-60
2023/08/31 09:58:21;;;;;;;3.33;1.25;;;;;;;18.73;64.85;100522.69;5007057;28;20394;-60
2023/08/31 10:00:51;;;;;;;4.30;1.60;;;;;;;18.61;66.15;100549.41;5007213;28;20053;-59
2023/08/31 10:03:17;;;;;;;5.53;1.20;;;;;;;18.58;64.27;100519.00;5008806;28;20064;-59
2023/08/31 10:05:47;;;;;;;2.17;0.98;;;;;;;18.67;64.29;100517.72;5009793;28;20184;-59
2023/08/31 10:08:13;;;;;;;3.63;1.02;;;;;;;19.07;62.24;100465.22;5010530;28;20061;-59
2023/08/31 10:10:39;;;;;;;4.43;1.23;;;;;;;19.20;62.44;100481.19;5015982;28;20047;-60
2023/08/31 10:13:05;;;;;;;2.63;1.05;;;;;;;19.31;62.08;100478.91;5001682;28;20050;-60
2023/08/31 10:15:36;;;;;;;5.90;1.25;;;;;;;19.40;61.47;100478.44;5004340;28;20401;-59
2023/08/31 10:18:03;;;;;;;3.17;1.00;;;;;;;19.43;59.21;100429.34;5009884;28;20048;-59
2023/08/31 10:20:31;;;;;;;2.75;1.08;;;;;;;19.46;58.10;100402.13;5009710;28;20128;-59
2023/08/31 10:23:03;;;;;;;4.53;1.58;;;;;;;19.41;58.77;100427.72;5005787;28;20070;-59
2023/08/31 10:25:54;;;;;;;3.95;1.40;;;;;;;19.30;60.64;100478.03;5002816;28;20038;-59
2023/08/31 10:28:20;;;;;;;2.20;1.23;;;;;;;19.30;61.22;100488.53;5003340;28;20056;-59
2023/08/31 10:31:03;;;;;;;8.95;1.52;;;;;;;19.37;60.28;100465.50;5011913;28;20556;-59
2023/08/31 10:33:34;;;;;;;4.78;1.42;;;;;;;19.43;60.43;100478.28;5003643;28;20115;-60
2023/08/31 10:36:00;;;;;;;2.70;1.23;;;;;;;19.36;58.67;100445.44;5002818;28;20049;-59
2023/08/31 10:38:31;;;;;;;3.13;1.40;;;;;;;19.40;60.32;100483.69;5013177;28;20030;-59
2023/08/31 10:41:20;;;;;;;2.40;1.30;;;;;;;19.47;60.61;100485.91;5002879;28;20104;-59
2023/08/31 10:43:53;;;;;;;3.25;1.35;;;;;;;19.47;59.77;100470.19;5004363;28;21043;-59
2023/08/31 10:46:28;;;;;;;2.78;1.30;;;;;;;19.47;58.25;100449.22;5015111;28;20041;-59
2023/08/31 10:48:55;;;;;;;3.65;1.23;;;;;;;19.52;58.65;100460.34;5005563;28;20053;-59
2023/08/31 10:51:29;;;;;;;2.58;1.17;;;;;;;19.82;59.38;100476.34;5004644;28;20083;-59
2023/08/31 10:54:26;;;;;;;5.10;1.33;;;;;;;20.01;59.80;100476.22;5010794;28;20549;-59
2023/08/31 10:56:53;;;;;;;4.55;1.30;;;;;;;19.97;58.30;100449.34;5004979;28;20037;-60
2023/08/31 10:59:19;;;;;;;3.05;1.45;;;;;;;20.02;58.00;100447.31;5013075;28;20056;-59
2023/08/31 11:02:02;;;;;;;3.92;1.40;;;;;;;20.16;59.17;100471.03;5009194;28;20056;-59
2023/08/31 11:04:29;;;;;;;3.00;1.23;;;;;;;20.24;57.06;100426.03;5009110;28;20037;-59
2023/08/31 11:07:17;;;;;;;5.45;1.40;;;;;;;20.43;55.12;100389.97;5002374;28;20097;-59
2023/08/31 11:09:44;;;;;;;3.70;1.73;;;;;;;20.90;55.33;100400.50;5004020;28;20024;-59
2023/08/31 11:12:10;;;;;;;4.32;1.80;;;;;;;20.84;55.51;100403.47;5003709;28;20053;-59
2023/08/31 11:14:36;;;;;;;5.95;1.30;;;;;;;20.59;56.41;100424.13;5010539;28;20034;-60
2023/08/31 11:17:03;;;;;;;5.38;1.80;;;;;;;20.38;56.73;100427.91;5005156;28;20107;-59
2023/08/31 11:19:29;;;;;;;4.25;1.45;;;;;;;20.23;56.88;100421.72;5010899;28;20398;-59